Time;durP1;ratioP1;P1;durP2;ratioP2;P2;SDS_P1;SDS_P2;PMS_P1;PMS_P2;Temp;Humidity;BMP_temperature;BMP_pressure;BME280_temperature;BME280_humidity;BME280_pressure;Samples;Min_cycle;Max_cycle;Signal;HPM_P1;HPM_P2
2021/11/22 00:02:05;;;;;;;15.40;11.13;;;;;;;2.67;100.00;97783.59;4961481;28;20219;-70
2021/11/22 00:04:33;;;;;;;14.97;11.07;;;;;;;2.71;100.00;97778.03;4956577;28;21022;-72
2021/11/22 00:07:01;;;;;;;14.43;10.47;;;;;;;2.70;100.00;97776.38;4988030;28;20236;-73
2021/11/22 00:09:33;;;;;;;14.83;11.03;;;;;;;2.86;100.00;97783.00;4992298;28;20295;-72
2021/11/22 00:12:01;;;;;;;12.27;9.90;;;;;;;2.84;100.00;97783.13;4986447;28;20221;-73
2021/11/22 00:14:29;;;;;;;12.67;9.33;;;;;;;2.80;100.00;97786.91;4994243;28;20815;-72
2021/11/22 00:16:58;;;;;;;13.10;10.27;;;;;;;2.84;100.00;97787.53;4987909;28;20596;-72
2021/11/22 00:19:26;;;;;;;12.83;10.63;;;;;;;2.77;100.00;97791.59;4964093;28;20931;-73
2021/11/22 00:21:54;;;;;;;13.23;10.30;;;;;;;2.86;100.00;97793.47;4962876;28;20220;-70
2021/11/22 00:24:22;;;;;;;13.90;10.33;;;;;;;2.96;100.00;97798.81;4988414;28;20205;-70
2021/11/22 00:26:51;;;;;;;12.17;10.77;;;;;;;2.86;100.00;97796.94;4974673;28;20638;-72
2021/11/22 00:29:19;;;;;;;11.70;9.97;;;;;;;2.84;100.00;97800.63;4990231;28;20212;-69
2021/11/22 00:31:49;;;;;;;12.90;11.33;;;;;;;2.90;100.00;97797.50;4988743;28;20980;-71
2021/11/22 00:34:18;;;;;;;14.47;10.03;;;;;;;2.93;100.00;97796.44;4993781;28;20493;-70
2021/11/22 00:36:46;;;;;;;14.30;10.40;;;;;;;2.88;100.00;97799.41;4957859;28;20222;-73
2021/11/22 00:39:14;;;;;;;12.73;9.97;;;;;;;2.87;100.00;97806.47;4986326;28;20213;-71
2021/11/22 00:41:42;;;;;;;14.20;10.13;;;;;;;2.95;100.00;97805.00;4978126;28;20236;-73
2021/11/22 00:44:12;;;;;;;15.20;11.07;;;;;;;2.89;100.00;97799.31;4987401;28;20519;-71
2021/11/22 00:46:40;;;;;;;13.33;10.77;;;;;;;2.83;100.00;97804.19;4975988;28;20638;-74
2021/11/22 00:49:08;;;;;;;14.37;10.10;;;;;;;2.83;100.00;97812.03;4987165;28;20811;-71
2021/11/22 00:51:36;;;;;;;12.80;10.83;;;;;;;2.90;100.00;97818.44;4948779;28;24982;-72
2021/11/22 00:54:04;;;;;;;13.30;10.63;;;;;;;2.86;100.00;97817.88;4994166;28;20212;-71
2021/11/22 00:56:35;;;;;;;14.77;11.37;;;;;;;2.90;100.00;97815.84;4979282;28;22826;-72
2021/11/22 00:59:03;;;;;;;15.13;11.47;;;;;;;2.90;100.00;97818.44;4990134;28;20201;-71
2021/11/22 01:01:33;;;;;;;12.80;10.93;;;;;;;2.97;100.00;97818.81;4992588;28;20450;-71
2021/11/22 01:04:01;;;;;;;13.53;10.47;;;;;;;2.95;100.00;97826.78;4986698;28;20635;-70
2021/11/22 01:06:29;;;;;;;13.27;9.93;;;;;;;2.91;100.00;97824.53;4956771;28;20934;-73
2021/11/22 01:08:57;;;;;;;13.57;10.63;;;;;;;2.86;100.00;97830.13;4990889;28;20232;-73
2021/11/22 01:11:25;;;;;;;15.63;10.20;;;;;;;2.78;100.00;97835.13;4989265;28;20226;-72
2021/11/22 01:13:53;;;;;;;14.70;10.93;;;;;;;2.80;100.00;97833.22;4972135;28;20499;-70
2021/11/22 01:16:21;;;;;;;13.50;11.20;;;;;;;2.78;100.00;97833.31;5000107;28;20209;-75
2021/11/22 01:18:51;;;;;;;14.70;10.53;;;;;;;2.78;100.00;97835.13;4988243;28;21060;-71
2021/11/22 01:21:19;;;;;;;13.70;11.13;;;;;;;2.77;100.00;97833.47;4998061;28;21026;-72
2021/11/22 01:23:47;;;;;;;12.63;10.23;;;;;;;2.84;100.00;97838.09;4956097;28;20224;-71
2021/11/22 01:26:15;;;;;;;13.77;10.87;;;;;;;2.79;100.00;97834.97;4991215;28;20214;-72
2021/11/22 01:28:43;;;;;;;13.63;9.87;;;;;;;2.89;100.00;97841.19;4977397;28;20240;-70
2021/11/22 01:31:11;;;;;;;15.27;10.50;;;;;;;2.89;100.00;97837.72;4990698;28;20229;-71
2021/11/22 01:33:39;;;;;;;14.47;10.77;;;;;;;2.95;100.00;97839.88;4990715;28;20209;-70
2021/11/22 01:36:09;;;;;;;13.87;10.30;;;;;;;2.88;100.00;97844.75;4987789;28;20198;-71
2021/11/22 01:38:37;;;;;;;12.53;10.23;;;;;;;2.71;100.00;97840.84;4958227;28;20216;-71
2021/11/22 01:41:05;;;;;;;15.27;9.93;;;;;;;2.89;100.00;97842.97;4986224;28;20436;-73
2021/11/22 01:43:34;;;;;;;13.10;10.20;;;;;;;2.79;100.00;97842.84;4991050;28;20212;-71
2021/11/22 01:46:02;;;;;;;12.77;9.57;;;;;;;2.70;100.00;97846.16;4978463;28;20214;-73
2021/11/22 01:48:30;;;;;;;12.10;9.83;;;;;;;2.69;100.00;97842.75;4998800;28;20335;-71
2021/11/22 01:50:58;;;;;;;12.97;9.77;;;;;;;2.79;100.00;97840.22;4987275;28;20443;-72
2021/11/22 01:53:28;;;;;;;12.43;9.27;;;;;;;2.77;100.00;97841.31;4958795;28;20220;-73
2021/11/22 01:56:16;;;;;;;14.70;10.17;;;;;;;2.73;100.00;97840.69;4989983;28;20200;-72
2021/11/22 01:58:44;;;;;;;11.40;9.33;;;;;;;2.65;100.00;97836.06;4982482;28;20211;-71
2021/11/22 02:01:12;;;;;;;12.73;10.23;;;;;;;2.66;100.00;97847.34;4990442;28;20296;-72
2021/11/22 02:03:41;;;;;;;13.77;9.40;;;;;;;2.69;100.00;97850.59;4988471;28;20324;-70
2021/11/22 02:06:09;;;;;;;11.93;9.40;;;;;;;2.74;100.00;97850.22;4988361;28;20624;-71
2021/11/22 02:08:40;;;;;;;13.57;10.37;;;;;;;2.79;100.00;97849.88;4981579;28;20228;-71
2021/11/22 02:11:11;;;;;;;12.57;9.87;;;;;;;2.84;100.00;97855.59;4979911;28;20671;-72
2021/11/22 02:13:39;;;;;;;12.13;9.27;;;;;;;2.89;100.00;97862.13;4954152;28;20227;-72
2021/11/22 02:16:07;;;;;;;12.07;9.47;;;;;;;2.81;100.00;97851.41;4983292;28;20498;-71
2021/11/22 02:18:35;;;;;;;12.33;10.03;;;;;;;2.83;100.00;97851.28;4976747;28;20212;-72
2021/11/22 02:21:05;;;;;;;17.70;11.13;;;;;;;2.96;100.00;97864.28;4987871;28;20229;-71
2021/11/22 02:23:34;;;;;;;14.10;10.00;;;;;;;2.93;100.00;97856.66;4972623;28;20693;-73
2021/11/22 02:26:03;;;;;;;16.83;10.03;;;;;;;2.95;100.00;97862.59;4985053;28;20206;-72
2021/11/22 02:28:31;;;;;;;12.00;8.83;;;;;;;2.88;100.00;97863.09;4950362;28;20454;-71
2021/11/22 02:30:59;;;;;;;16.27;11.33;;;;;;;2.77;100.00;97863.06;4992651;28;20608;-71
2021/11/22 02:33:27;;;;;;;16.53;10.63;;;;;;;3.01;100.00;97857.72;4995108;28;20209;-72
2021/11/22 02:35:58;;;;;;;15.87;10.50;;;;;;;3.14;100.00;97865.44;4987789;28;20430;-71
2021/11/22 02:38:29;;;;;;;16.60;11.83;;;;;;;3.09;100.00;97859.75;4978795;28;20358;-72
2021/11/22 02:40:57;;;;;;;14.73;9.53;;;;;;;3.09;100.00;97859.75;4989190;28;20230;-70
2021/11/22 02:43:25;;;;;;;15.30;10.67;;;;;;;3.07;100.00;97868.69;4958762;28;21382;-72
2021/11/22 02:45:54;;;;;;;13.10;9.73;;;;;;;2.94;100.00;97869.63;4992261;28;20232;-71
2021/11/22 02:48:22;;;;;;;19.00;11.47;;;;;;;2.91;100.00;97880.31;4987335;28;20545;-72
2021/11/22 02:50:50;;;;;;;18.07;12.27;;;;;;;3.04;100.00;97872.38;4991791;28;20234;-72
2021/11/22 02:53:22;;;;;;;17.63;11.43;;;;;;;3.10;100.00;97871.88;4990640;28;20206;-74
2021/11/22 02:55:52;;;;;;;18.40;12.50;;;;;;;2.99;100.00;97882.34;4983443;28;20213;-72
2021/11/22 02:58:22;;;;;;;19.80;12.80;;;;;;;2.99;100.00;97877.13;4956796;28;20680;-72
2021/11/22 03:00:50;;;;;;;17.47;11.63;;;;;;;3.15;100.00;97880.19;4990093;28;20254;-71
2021/11/22 03:03:18;;;;;;;20.03;11.57;;;;;;;3.07;100.00;97881.78;4987147;28;20335;-69
2021/11/22 03:05:47;;;;;;;18.73;12.40;;;;;;;3.03;100.00;97889.03;4991615;28;20211;-70
2021/11/22 03:08:15;;;;;;;16.03;11.80;;;;;;;3.05;100.00;97892.34;4992946;28;20230;-71
2021/11/22 03:10:43;;;;;;;15.13;11.17;;;;;;;3.05;100.00;97887.13;4985040;28;20233;-70
2021/11/22 03:13:12;;;;;;;16.57;12.10;;;;;;;3.14;100.00;97891.63;4989613;28;20446;-72
2021/11/22 03:15:40;;;;;;;17.43;11.43;;;;;;;2.99;100.00;97888.41;4958775;28;20221;-70
2021/11/22 03:18:08;;;;;;;19.67;11.63;;;;;;;3.01;100.00;97898.78;4990544;28;20287;-72
2021/11/22 03:20:36;;;;;;;18.03;11.17;;;;;;;3.04;100.00;97899.38;4994926;28;20229;-72
2021/11/22 03:23:04;;;;;;;17.27;10.93;;;;;;;3.05;100.00;97892.34;4987342;28;20208;-71
2021/11/22 03:25:32;;;;;;;20.10;12.00;;;;;;;3.12;100.00;97898.78;4990244;28;20210;-71
2021/11/22 03:28:00;;;;;;;16.93;9.73;;;;;;;3.12;100.00;97901.41;4976358;28;20213;-72
2021/11/22 03:30:30;;;;;;;15.50;9.73;;;;;;;3.03;100.00;97904.72;4959404;28;20237;-72
2021/11/22 03:32:58;;;;;;;18.37;10.50;;;;;;;3.15;100.00;97902.94;4988144;28;20201;-71
2021/11/22 03:35:27;;;;;;;19.77;9.70;;;;;;;3.16;100.00;97905.44;4984968;28;20210;-73
2021/11/22 03:37:55;;;;;;;16.97;9.63;;;;;;;3.00;100.00;97908.41;4986526;28;20665;-72
2021/11/22 03:40:23;;;;;;;14.13;9.10;;;;;;;3.24;100.00;97917.13;4993940;28;20225;-73
2021/11/22 03:43:02;;;;;;;12.27;7.87;;;;;;;3.27;100.00;97915.09;4975973;28;20220;-73
2021/11/22 03:45:31;;;;;;;16.83;10.53;;;;;;;3.31;100.00;97910.44;4963701;28;20216;-71
2021/11/22 03:47:59;;;;;;;16.77;8.93;;;;;;;3.41;100.00;97915.78;4986989;28;20794;-72
2021/11/22 03:50:28;;;;;;;11.90;9.33;;;;;;;3.37;100.00;97906.50;4995537;28;20572;-71
2021/11/22 03:52:56;;;;;;;14.73;9.03;;;;;;;3.35;100.00;97909.25;4988944;28;20231;-73
2021/11/22 03:55:25;;;;;;;12.40;8.53;;;;;;;3.31;100.00;97920.94;4997619;28;20208;-71
2021/11/22 03:57:53;;;;;;;13.97;8.87;;;;;;;3.23;100.00;97923.31;4983452;28;20301;-72
2021/11/22 04:00:22;;;;;;;13.73;9.83;;;;;;;3.25;100.00;97929.28;4985355;28;20229;-72
2021/11/22 04:02:55;;;;;;;10.23;8.03;;;;;;;3.31;100.00;97931.41;4953116;28;20236;-70
2021/11/22 04:05:23;;;;;;;11.03;8.17;;;;;;;3.33;100.00;97922.47;4992626;28;20201;-72
2021/11/22 04:07:51;;;;;;;13.93;6.80;;;;;;;3.26;100.00;97931.75;4987570;28;20598;-70
2021/11/22 04:10:19;;;;;;;11.47;7.87;;;;;;;3.17;100.00;97932.47;4995830;28;20241;-72
2021/11/22 04:12:48;;;;;;;9.90;7.40;;;;;;;3.17;100.00;97935.09;4981508;28;20209;-71
2021/11/22 04:15:16;;;;;;;10.40;7.73;;;;;;;3.26;100.00;97942.22;4992598;28;20217;-72
2021/11/22 04:17:44;;;;;;;14.37;8.07;;;;;;;3.15;100.00;97942.22;4956319;28;20212;-71
2021/11/22 04:20:13;;;;;;;9.37;7.73;;;;;;;3.26;100.00;97941.41;4949141;28;20221;-69
2021/11/22 04:22:41;;;;;;;9.73;7.87;;;;;;;3.23;100.00;97944.28;4976931;28;20712;-71
2021/11/22 04:25:10;;;;;;;10.27;6.57;;;;;;;3.13;100.00;97947.56;4990771;28;20201;-72
2021/11/22 04:27:38;;;;;;;12.43;7.73;;;;;;;3.35;100.00;97951.16;4979911;28;20217;-71
2021/11/22 04:30:08;;;;;;;11.20;7.67;;;;;;;3.29;100.00;97956.88;4989603;28;20517;-71
2021/11/22 04:32:36;;;;;;;13.20;8.30;;;;;;;3.29;100.00;97959.50;4992654;28;20208;-71
2021/11/22 04:35:06;;;;;;;13.23;8.27;;;;;;;3.24;100.00;97956.41;4960380;28;21406;-72
2021/11/22 04:37:36;;;;;;;13.87;7.80;;;;;;;3.19;100.00;97965.44;4983943;28;20657;-71
2021/11/22 04:40:07;;;;;;;8.97;6.57;;;;;;;3.29;100.00;97968.19;4994681;28;20220;-72
2021/11/22 04:42:35;;;;;;;10.37;7.43;;;;;;;3.26;100.00;97973.66;4991939;28;20682;-71
2021/11/22 04:45:04;;;;;;;11.63;8.10;;;;;;;3.37;100.00;97970.22;4984959;28;20528;-71
2021/11/22 04:47:34;;;;;;;14.40;8.53;;;;;;;3.18;100.00;97970.81;4988009;28;20572;-70
2021/11/22 04:50:02;;;;;;;12.47;8.43;;;;;;;3.23;100.00;97983.56;4976591;28;20285;-72
2021/11/22 04:52:30;;;;;;;16.13;8.33;;;;;;;3.16;100.00;97978.75;4960218;28;20221;-71
2021/11/22 04:54:59;;;;;;;15.93;8.47;;;;;;;3.31;100.00;97981.19;4978728;28;20803;-74
2021/11/22 04:57:27;;;;;;;18.53;9.47;;;;;;;3.18;100.00;97991.75;4995795;28;20677;-71
2021/11/22 04:59:55;;;;;;;11.27;8.03;;;;;;;3.22;100.00;97989.72;4981808;28;20395;-72
2021/11/22 05:02:23;;;;;;;10.30;7.77;;;;;;;3.31;100.00;97991.66;4982074;28;20217;-74
2021/11/22 05:04:52;;;;;;;10.43;7.63;;;;;;;3.31;100.00;97996.91;4986099;28;20350;-70
2021/11/22 05:07:20;;;;;;;12.33;7.40;;;;;;;3.39;100.00;97993.66;4965414;28;20325;-75
2021/11/22 05:09:48;;;;;;;12.87;8.23;;;;;;;3.47;100.00;98002.59;4980682;28;20240;-72
2021/11/22 05:12:17;;;;;;;10.60;7.93;;;;;;;3.56;100.00;97995.81;4992103;28;20205;-70
2021/11/22 05:14:46;;;;;;;11.57;8.07;;;;;;;3.46;100.00;98005.34;4969544;28;20401;-77
2021/11/22 05:17:14;;;;;;;13.00;7.93;;;;;;;3.51;100.00;98002.38;4989432;28;20373;-75
2021/11/22 05:19:42;;;;;;;11.17;7.90;;;;;;;3.39;100.00;98004.13;4992515;28;20200;-75
2021/11/22 05:22:17;;;;;;;10.40;8.17;;;;;;;3.41;100.00;98010.09;4957327;28;20224;-76
2021/11/22 05:24:48;;;;;;;9.07;7.93;;;;;;;3.38;100.00;98008.56;4986157;28;20403;-75
2021/11/22 05:27:18;;;;;;;11.27;7.80;;;;;;;3.46;100.00;98014.03;4993956;28;20220;-72
2021/11/22 05:29:47;;;;;;;8.87;7.30;;;;;;;3.45;100.00;98009.75;4979676;28;20471;-73
2021/11/22 05:32:16;;;;;;;11.50;7.63;;;;;;;3.38;100.00;98012.94;4989628;28;20793;-77
2021/11/22 05:34:45;;;;;;;10.47;7.67;;;;;;;3.41;100.00;98010.94;4995281;28;20425;-76
2021/11/22 05:37:14;;;;;;;7.97;7.17;;;;;;;3.39;100.00;98010.22;4978695;28;20641;-76
2021/11/22 05:39:42;;;;;;;10.27;8.00;;;;;;;3.43;100.00;98016.06;4957510;28;20673;-75
2021/11/22 05:42:10;;;;;;;12.23;8.37;;;;;;;3.50;100.00;98026.91;4991150;28;20678;-79
2021/11/22 05:44:40;;;;;;;10.90;8.33;;;;;;;3.42;100.00;98025.72;4988848;28;20212;-74
2021/11/22 05:47:09;;;;;;;10.33;8.60;;;;;;;3.48;100.00;98030.47;4981496;28;20612;-70
2021/11/22 05:49:37;;;;;;;11.03;7.27;;;;;;;3.47;100.00;98031.44;4991229;28;20725;-77
2021/11/22 05:52:07;;;;;;;13.13;9.53;;;;;;;3.50;100.00;98045.25;4988637;28;20750;-77
2021/11/22 05:54:42;;;;;;;9.60;7.80;;;;;;;3.62;100.00;98037.28;4958199;28;20217;-78
2021/11/22 05:57:11;;;;;;;11.13;8.47;;;;;;;3.69;100.00;98039.41;4991659;28;20684;-76
2021/11/22 05:59:41;;;;;;;15.30;9.40;;;;;;;3.70;100.00;98044.56;4989790;28;20212;-74
2021/11/22 06:02:09;;;;;;;11.93;8.77;;;;;;;3.58;100.00;98043.72;4983196;28;20216;-73
2021/11/22 06:04:37;;;;;;;11.30;7.93;;;;;;;3.79;100.00;98047.41;4993449;28;20278;-74
2021/11/22 06:07:05;;;;;;;15.07;9.00;;;;;;;3.66;100.00;98051.00;4990628;28;20210;-76
2021/11/22 06:09:34;;;;;;;13.60;9.63;;;;;;;3.59;100.00;98053.22;4964993;28;20512;-74
2021/11/22 06:12:03;;;;;;;15.53;8.97;;;;;;;3.78;100.00;98056.22;4977606;28;20308;-77
2021/11/22 06:14:31;;;;;;;13.60;9.50;;;;;;;3.67;100.00;98064.91;4981872;28;20227;-76
2021/11/22 06:17:01;;;;;;;9.97;8.77;;;;;;;3.68;100.00;98063.97;4982766;28;20209;-77
2021/11/22 06:19:30;;;;;;;12.00;8.77;;;;;;;3.65;100.00;98066.81;4987829;28;20216;-75
2021/11/22 06:21:58;;;;;;;11.97;8.97;;;;;;;3.78;100.00;98064.91;4993972;28;20205;-76
2021/11/22 06:24:26;;;;;;;15.97;9.03;;;;;;;3.71;100.00;98072.44;4989057;28;20431;-76
2021/11/22 06:26:56;;;;;;;10.47;9.13;;;;;;;3.56;100.00;98079.69;4952097;28;20837;-76
2021/11/22 06:29:24;;;;;;;14.47;10.07;;;;;;;3.54;100.00;98076.34;4990073;28;20209;-74
2021/11/22 06:31:52;;;;;;;14.03;9.83;;;;;;;3.60;100.00;98086.34;4996622;28;20237;-76
2021/11/22 06:34:22;;;;;;;11.63;8.87;;;;;;;3.60;100.00;98088.16;4988606;28;20210;-75
2021/11/22 06:36:50;;;;;;;13.03;9.37;;;;;;;3.69;100.00;98105.78;4991354;28;20422;-75
2021/11/22 06:39:18;;;;;;;15.57;9.10;;;;;;;3.70;100.00;98098.75;4998706;28;20205;-74
2021/11/22 06:41:46;;;;;;;15.27;9.87;;;;;;;3.61;100.00;98101.13;4962838;28;20553;-76
2021/11/22 06:44:14;;;;;;;18.97;10.80;;;;;;;3.60;100.00;98111.75;4995400;28;20208;-76
2021/11/22 06:46:44;;;;;;;15.43;9.93;;;;;;;3.87;100.00;98108.78;4989581;28;20220;-76
2021/11/22 06:49:12;;;;;;;14.77;10.37;;;;;;;3.81;100.00;98113.66;4993164;28;20507;-77
2021/11/22 06:51:42;;;;;;;13.00;9.00;;;;;;;3.89;100.00;98119.13;4984885;28;20236;-77
2021/11/22 06:54:10;;;;;;;11.13;10.00;;;;;;;3.80;100.00;98117.22;4997867;28;20205;-76
2021/11/22 06:56:38;;;;;;;15.33;10.90;;;;;;;4.12;100.00;98116.53;4960415;28;20615;-75
2021/11/22 06:59:07;;;;;;;13.80;9.80;;;;;;;4.11;100.00;98115.69;4990925;28;20257;-74
2021/11/22 07:01:35;;;;;;;15.70;9.67;;;;;;;4.22;100.00;98121.91;4991801;28;20263;-74
2021/11/22 07:04:03;;;;;;;17.03;11.37;;;;;;;4.05;100.00;98124.88;4986793;28;20206;-76
2021/11/22 07:06:31;;;;;;;18.83;10.40;;;;;;;4.14;100.00;98120.69;4987095;28;20212;-74
2021/11/22 07:09:01;;;;;;;15.47;11.43;;;;;;;3.93;100.00;98128.44;4995975;28;20585;-77
2021/11/22 07:11:29;;;;;;;19.13;10.67;;;;;;;3.83;100.00;98132.72;4973782;28;20232;-74
2021/11/22 07:13:57;;;;;;;17.03;11.23;;;;;;;3.80;100.00;98146.91;4986484;28;20324;-76
2021/11/22 07:16:25;;;;;;;18.87;11.50;;;;;;;3.95;100.00;98155.38;4996296;28;20209;-74
2021/11/22 07:18:54;;;;;;;13.50;10.93;;;;;;;3.80;100.00;98151.31;4976221;28;20281;-74
2021/11/22 07:21:22;;;;;;;15.27;10.43;;;;;;;3.82;100.00;98159.88;4990902;28;20234;-76
2021/11/22 07:23:51;;;;;;;17.30;12.03;;;;;;;3.73;100.00;98164.03;4975929;28;20209;-74
2021/11/22 07:26:20;;;;;;;14.47;10.63;;;;;;;3.78;100.00;98164.53;4989117;28;20217;-77
2021/11/22 07:28:48;;;;;;;14.77;11.00;;;;;;;3.70;100.00;98170.38;4962925;28;20230;-74
2021/11/22 07:31:16;;;;;;;17.87;11.40;;;;;;;3.67;100.00;98188.09;4991439;28;20256;-76
2021/11/22 07:33:45;;;;;;;15.07;10.37;;;;;;;3.67;100.00;98191.56;4990355;28;20208;-74
2021/11/22 07:36:13;;;;;;;16.73;11.40;;;;;;;3.79;100.00;98186.34;4990919;28;20236;-76
2021/11/22 07:38:41;;;;;;;16.93;11.33;;;;;;;3.83;100.00;98190.41;4978824;28;20209;-74
2021/11/22 07:41:09;;;;;;;19.50;12.43;;;;;;;3.84;100.00;98186.81;4982711;28;20438;-75
2021/11/22 07:43:39;;;;;;;15.90;11.47;;;;;;;3.76;100.00;98190.88;4967660;28;20216;-76
2021/11/22 07:46:07;;;;;;;15.03;12.17;;;;;;;3.89;100.00;98193.41;4988575;28;20805;-77
2021/11/22 07:48:35;;;;;;;18.00;12.67;;;;;;;3.99;100.00;98188.28;4990755;28;21357;-77
2021/11/22 07:51:04;;;;;;;16.97;11.57;;;;;;;3.98;100.00;98196.25;4984958;28;20329;-75
2021/11/22 07:53:36;;;;;;;17.37;11.73;;;;;;;3.92;100.00;98194.94;4979908;28;20313;-78
2021/11/22 07:56:04;;;;;;;17.27;11.00;;;;;;;4.02;100.00;98195.94;4978856;28;20230;-78
2021/11/22 07:58:33;;;;;;;19.37;11.77;;;;;;;4.04;100.00;98199.25;4960738;28;20989;-79
2021/11/22 08:01:02;;;;;;;14.63;11.23;;;;;;;4.11;100.00;98214.53;4986408;28;20459;-78
2021/11/22 08:03:31;;;;;;;16.83;11.57;;;;;;;4.07;100.00;98208.66;4988509;28;20208;-74
2021/11/22 08:05:59;;;;;;;15.00;11.40;;;;;;;4.05;100.00;98211.44;4994748;28;20201;-76
2021/11/22 08:08:30;;;;;;;19.77;12.03;;;;;;;4.04;100.00;98222.03;4987275;28;20706;-74
2021/11/22 08:11:06;;;;;;;17.80;10.77;;;;;;;4.24;100.00;98222.28;4978470;28;20796;-71
2021/11/22 08:13:35;;;;;;;15.20;11.53;;;;;;;4.12;100.00;98221.44;4959113;28;20626;-71
2021/11/22 08:16:07;;;;;;;18.87;11.73;;;;;;;4.07;100.00;98226.22;4976929;28;20704;-77
2021/11/22 08:18:36;;;;;;;17.07;12.03;;;;;;;4.12;100.00;98239.81;4989538;28;20254;-74
2021/11/22 08:21:05;;;;;;;16.33;11.63;;;;;;;4.12;100.00;98234.56;4981390;28;20432;-76
2021/11/22 08:23:33;;;;;;;21.07;11.40;;;;;;;4.23;100.00;98244.25;4991801;28;20205;-74
2021/11/22 08:26:02;;;;;;;13.53;11.37;;;;;;;4.11;100.00;98256.50;4965465;28;20205;-76
2021/11/22 08:28:30;;;;;;;17.67;11.13;;;;;;;4.17;100.00;98251.63;4943742;28;20220;-74
2021/11/22 08:30:58;;;;;;;17.93;11.07;;;;;;;4.07;100.00;98255.88;4943988;28;1279795;-75
2021/11/22 08:33:27;;;;;;;18.50;11.20;;;;;;;4.13;100.00;98262.47;4960780;28;20217;-76
2021/11/22 08:35:55;;;;;;;16.67;12.50;;;;;;;3.99;100.00;98266.13;4974254;28;20739;-76
2021/11/22 08:38:23;;;;;;;14.00;11.47;;;;;;;3.96;100.00;98275.03;4989426;28;20205;-77
2021/11/22 08:40:51;;;;;;;13.93;10.70;;;;;;;3.98;100.00;98277.56;4979258;28;20535;-76
2021/11/22 08:43:24;;;;;;;15.87;12.20;;;;;;;3.95;100.00;98278.63;4976364;28;20731;-74
2021/11/22 08:45:54;;;;;;;17.70;11.70;;;;;;;3.98;100.00;98283.66;4993581;28;20352;-74
2021/11/22 08:48:25;;;;;;;16.50;10.90;;;;;;;4.11;100.00;98280.09;4982970;28;20210;-73
2021/11/22 08:50:55;;;;;;;20.93;11.70;;;;;;;4.04;100.00;98288.44;4979024;28;20467;-76
2021/11/22 08:53:23;;;;;;;12.87;10.30;;;;;;;4.15;100.00;98292.03;4989254;28;20217;-74
2021/11/22 08:55:51;;;;;;;18.40;11.60;;;;;;;4.18;100.00;98300.50;4980710;28;20490;-75
2021/11/22 08:58:19;;;;;;;15.13;10.47;;;;;;;4.10;100.00;98299.41;4991777;28;20209;-74
2021/11/22 09:00:47;;;;;;;18.23;10.80;;;;;;;4.22;100.00;98301.09;4986490;28;20216;-75
2021/11/22 09:03:16;;;;;;;16.43;10.53;;;;;;;4.14;100.00;98303.47;4987911;28;20210;-74
2021/11/22 09:05:44;;;;;;;11.20;9.47;;;;;;;4.21;100.00;98302.06;4958280;28;20744;-76
2021/11/22 09:08:16;;;;;;;15.47;10.40;;;;;;;4.32;100.00;98311.75;4990672;28;20209;-77
2021/11/22 09:10:44;;;;;;;14.17;10.23;;;;;;;4.31;100.00;98304.81;4975373;28;20263;-75
2021/11/22 09:13:14;;;;;;;12.23;10.33;;;;;;;4.45;100.00;98316.91;4989206;28;20229;-76
2021/11/22 09:15:42;;;;;;;15.43;10.70;;;;;;;4.38;100.00;98316.53;4988510;28;20204;-76
2021/11/22 09:18:10;;;;;;;12.27;9.63;;;;;;;4.45;100.00;98316.91;4992336;28;20209;-76
2021/11/22 09:20:38;;;;;;;15.90;10.17;;;;;;;4.45;100.00;98316.91;4957569;28;20809;-73
2021/11/22 09:23:06;;;;;;;12.40;8.97;;;;;;;4.39;100.00;98322.63;4989188;28;20197;-76
2021/11/22 09:25:36;;;;;;;12.43;8.80;;;;;;;4.34;100.00;98331.66;4984406;28;20606;-74
2021/11/22 09:28:05;;;;;;;13.90;10.40;;;;;;;4.42;100.00;98328.44;4989403;28;20208;-76
2021/11/22 09:30:33;;;;;;;12.80;8.50;;;;;;;4.47;100.00;98323.69;4991198;28;20231;-73
2021/11/22 09:33:01;;;;;;;14.47;9.37;;;;;;;4.53;100.00;98332.03;4992404;28;20224;-77
2021/11/22 09:35:29;;;;;;;12.03;8.67;;;;;;;4.54;100.00;98334.56;4974535;28;20652;-74
2021/11/22 09:37:57;;;;;;;12.17;9.10;;;;;;;4.64;100.00;98338.16;4983752;28;20207;-75
2021/11/22 09:40:26;;;;;;;12.87;9.33;;;;;;;4.64;100.00;98335.50;4982939;28;20256;-74
2021/11/22 09:42:56;;;;;;;11.30;8.30;;;;;;;4.72;100.00;98339.34;4990534;28;20286;-77
2021/11/22 09:45:27;;;;;;;8.93;7.83;;;;;;;4.70;100.00;98339.47;4993420;28;20699;-74
2021/11/22 09:47:56;;;;;;;12.67;10.10;;;;;;;4.77;100.00;98334.59;4990847;28;20779;-74
2021/11/22 09:50:25;;;;;;;10.70;9.50;;;;;;;4.70;100.00;98343.88;4984961;28;20220;-72
2021/11/22 09:52:53;;;;;;;9.13;8.00;;;;;;;4.81;100.00;98345.69;4972077;28;20347;-76
2021/11/22 09:55:21;;;;;;;10.30;8.03;;;;;;;4.84;100.00;98348.91;4995204;28;20674;-73
2021/11/22 09:57:50;;;;;;;12.40;8.27;;;;;;;4.66;100.00;98356.41;4977562;28;20566;-74
2021/11/22 10:00:19;;;;;;;14.63;8.73;;;;;;;4.73;100.00;98354.13;4989563;28;20228;-75
2021/11/22 10:02:51;;;;;;;10.10;8.17;;;;;;;4.66;100.00;98360.81;4984299;28;20463;-75
2021/11/22 10:05:22;;;;;;;9.67;7.53;;;;;;;4.72;100.00;98366.44;4992566;28;20205;-74
2021/11/22 10:08:06;;;;;;;9.23;8.40;;;;;;;4.78;100.00;98354.66;4962607;28;20439;-76
2021/11/22 10:10:37;;;;;;;10.17;8.63;;;;;;;4.79;100.00;98353.69;4985074;28;20228;-77
2021/11/22 10:13:23;;;;;;;10.80;9.03;;;;;;;4.93;100.00;98357.88;4994819;28;20229;-73
2021/11/22 10:15:55;;;;;;;9.33;8.17;;;;;;;4.99;100.00;98359.16;4991677;28;20883;-76
2021/11/22 10:18:25;;;;;;;11.30;8.77;;;;;;;4.98;100.00;98366.22;4997228;28;20213;-72
2021/11/22 10:20:53;;;;;;;10.37;7.30;;;;;;;4.93;100.00;98365.75;4996462;28;20236;-74
2021/11/22 10:23:23;;;;;;;8.13;7.33;;;;;;;4.90;100.00;98363.34;4963773;28;20309;-76
2021/11/22 10:25:53;;;;;;;13.30;12.00;;;;;;;4.90;100.00;98369.44;4987467;28;20669;-73
2021/11/22 10:28:22;;;;;;;9.67;8.33;;;;;;;4.90;100.00;98371.22;4996831;28;20210;-72
2021/11/22 10:30:53;;;;;;;7.93;7.20;;;;;;;5.02;100.00;98372.06;4999121;28;20319;-75
2021/11/22 10:33:23;;;;;;;8.97;7.80;;;;;;;5.04;100.00;98375.41;4995927;28;20222;-76
2021/11/22 10:35:53;;;;;;;8.30;7.53;;;;;;;4.90;100.00;98371.22;4993562;28;20427;-75
2021/11/22 10:38:22;;;;;;;8.80;7.97;;;;;;;4.87;100.00;98374.94;4966261;28;20217;-74
2021/11/22 10:40:52;;;;;;;8.57;7.13;;;;;;;4.84;100.00;98380.44;4954169;28;20474;-74
2021/11/22 10:43:20;;;;;;;8.67;7.40;;;;;;;4.91;100.00;98373.75;4995016;28;20205;-75
2021/11/22 10:45:50;;;;;;;9.43;7.63;;;;;;;5.02;100.00;98378.16;4991932;28;20206;-73
2021/11/22 10:48:23;;;;;;;8.87;6.90;;;;;;;5.04;100.00;98376.25;4996660;28;20225;-74
2021/11/22 10:51:02;;;;;;;7.20;6.43;;;;;;;5.01;100.00;98379.13;4980296;28;20244;-75
2021/11/22 10:53:34;;;;;;;8.20;7.10;;;;;;;5.03;100.00;98392.13;4997164;28;20239;-73
2021/11/22 10:56:03;;;;;;;9.70;6.50;;;;;;;4.98;100.00;98379.38;4951503;28;20417;-73
2021/11/22 10:58:42;;;;;;;8.73;6.73;;;;;;;4.89;100.00;98388.78;4989303;28;20228;-74
2021/11/22 11:01:18;;;;;;;7.47;6.77;;;;;;;5.00;100.00;98379.22;4993426;28;20224;-75
2021/11/22 11:03:57;;;;;;;7.63;6.50;;;;;;;4.88;100.00;98395.00;4987759;28;20365;-74
2021/11/22 11:06:53;;;;;;;7.33;6.63;;;;;;;4.89;100.00;98391.41;4998942;28;20202;-76
2021/11/22 11:09:24;;;;;;;6.70;6.03;;;;;;;4.88;100.00;98397.63;4995779;28;20457;-73
2021/11/22 11:12:01;;;;;;;7.37;6.63;;;;;;;4.90;100.00;98397.47;4953282;28;21823;-77
2021/11/22 11:14:31;;;;;;;7.37;6.67;;;;;;;4.97;100.00;98400.47;4991705;28;20225;-76
2021/11/22 11:17:13;;;;;;;7.03;6.33;;;;;;;4.89;100.00;98401.06;4990682;28;20257;-76
2021/11/22 11:19:45;;;;;;;6.50;6.00;;;;;;;4.93;100.00;98407.78;4994184;28;20215;-76
2021/11/22 11:22:14;;;;;;;7.47;6.40;;;;;;;5.05;100.00;98413.84;4998127;28;20205;-76
2021/11/22 11:24:42;;;;;;;6.40;5.80;;;;;;;4.98;100.00;98404.78;4995049;28;20208;-76
2021/11/22 11:27:31;;;;;;;6.40;5.90;;;;;;;4.93;100.00;98411.22;4986407;28;20601;-78
2021/11/22 11:30:00;;;;;;;6.47;5.90;;;;;;;4.98;100.00;98410.03;4961066;28;20363;-77
2021/11/22 11:32:28;;;;;;;6.77;5.97;;;;;;;5.03;100.00;98410.50;4997530;28;20208;-77